Abilene, Dyess Air Force Base (KDYS)

NameDyess Air Force Base
CityAbilene
CountryUnited States
ICAOKDYS
IATADYS
Altitude545 m
CoordinatesGoogle Map
Live Air TrafficLiveATC.net
METARKDYS 181256Z AUTO 33011KT 10SM CLR 07/02 A3025 RMK AO2 SLP242 T00720017 PNO FZRANO $
2020-01-18 12:56:00 Wind: Northwest (330°) 5.66 m/s - Visibility: 16093.4 m - Temperature: 7 °C - Dew point: 2 °C - Humidity: 70.8% - Pressure: 1024.38 hPa

Sorry, no flights used the airport in this database.